Time;durP1;ratioP1;P1;durP2;ratioP2;P2;SDS_P1;SDS_P2;PMS_P1;PMS_P2;Temp;Humidity;BMP_temperature;BMP_pressure;BME280_temperature;BME280_humidity;BME280_pressure;Samples;Min_cycle;Max_cycle;Signal;HPM_P1;HPM_P2
2022/06/21 00:01:32;;;;;;;1.17;0.80;;;28.30;38.40;;;;;;5109915;27;45177;-73
2022/06/21 00:04:01;;;;;;;1.65;0.98;;;28.30;38.50;;;;;;5109786;27;46402;-74
2022/06/21 00:06:28;;;;;;;1.10;1.00;;;28.20;38.40;;;;;;5109696;27;45277;-73
2022/06/21 00:08:55;;;;;;;1.00;1.00;;;28.20;38.40;;;;;;5109942;27;45390;-73
2022/06/21 00:11:23;;;;;;;1.08;1.00;;;28.20;38.40;;;;;;5109740;27;45358;-73
2022/06/21 00:13:50;;;;;;;1.10;1.00;;;28.10;38.20;;;;;;5109428;27;46433;-73
2022/06/21 00:16:18;;;;;;;1.48;1.10;;;28.10;38.30;;;;;;5109130;27;45255;-73
2022/06/21 00:18:45;;;;;;;0.90;0.90;;;28.10;38.30;;;;;;5125584;27;45240;-73
2022/06/21 00:21:13;;;;;;;0.90;0.90;;;28.10;38.30;;;;;;5130621;27;45121;-73
2022/06/21 00:23:40;;;;;;;0.82;0.82;;;28.00;38.20;;;;;;5130186;27;45207;-73
2022/06/21 00:26:09;;;;;;;1.33;1.00;;;28.00;38.20;;;;;;5129914;27;45344;-73
2022/06/21 00:28:36;;;;;;;0.90;0.90;;;28.00;38.20;;;;;;5130442;27;45159;-73
2022/06/21 00:31:03;;;;;;;1.50;1.00;;;27.90;38.20;;;;;;5130342;27;45454;-73
2022/06/21 00:33:31;;;;;;;0.80;0.80;;;27.90;38.20;;;;;;5130015;27;45340;-74
2022/06/21 00:36:00;;;;;;;0.80;0.80;;;27.90;38.20;;;;;;5129637;27;45294;-73
2022/06/21 00:38:29;;;;;;;2.70;1.10;;;27.90;38.10;;;;;;5129298;27;45219;-73
2022/06/21 00:40:56;;;;;;;1.30;1.20;;;27.80;38.10;;;;;;5130140;27;45317;-73
2022/06/21 00:43:24;;;;;;;1.15;1.05;;;27.80;38.10;;;;;;5129684;27;45372;-73
2022/06/21 00:45:51;;;;;;;0.80;0.80;;;27.80;38.10;;;;;;5129834;27;45214;-73
2022/06/21 00:48:19;;;;;;;1.08;1.00;;;27.80;38.70;;;;;;5129639;27;45194;-73
2022/06/21 00:50:49;;;;;;;0.80;0.80;;;27.70;38.10;;;;;;5129870;27;45306;-73
2022/06/21 00:53:18;;;;;;;0.85;0.85;;;27.70;38.00;;;;;;5129453;27;46415;-73
2022/06/21 00:55:48;;;;;;;1.10;1.00;;;27.70;38.10;;;;;;5129379;27;45222;-73
2022/06/21 00:58:15;;;;;;;1.92;0.90;;;27.70;38.00;;;;;;5129582;27;45316;-73
2022/06/21 01:00:59;;;;;;;0.90;0.70;;;27.60;38.00;;;;;;5129664;27;45381;-73
2022/06/21 01:03:27;;;;;;;1.48;0.75;;;27.60;37.90;;;;;;5129296;27;45300;-73
2022/06/21 01:05:56;;;;;;;0.80;0.80;;;27.60;38.00;;;;;;5129334;27;45203;-74
2022/06/21 01:08:27;;;;;;;1.52;0.82;;;27.60;38.00;;;;;;5129156;27;45322;-73
2022/06/21 01:10:55;;;;;;;1.15;0.90;;;27.60;38.00;;;;;;5129487;27;45375;-73
2022/06/21 01:13:23;;;;;;;0.73;0.73;;;27.50;37.90;;;;;;5129141;27;46417;-74
2022/06/21 01:15:51;;;;;;;0.80;0.80;;;27.50;37.90;;;;;;5128796;27;45233;-74
2022/06/21 01:18:19;;;;;;;1.02;0.85;;;27.50;37.90;;;;;;5129032;27;45236;-73
2022/06/21 01:20:47;;;;;;;0.68;0.68;;;27.50;37.90;;;;;;5129379;27;45261;-73
2022/06/21 01:23:21;;;;;;;0.70;0.70;;;27.40;37.90;;;;;;5128862;27;46399;-74
2022/06/21 01:25:51;;;;;;;0.80;0.80;;;27.40;37.90;;;;;;5129235;27;45280;-74
2022/06/21 01:28:19;;;;;;;0.90;0.90;;;27.40;37.90;;;;;;5129131;27;45219;-73
2022/06/21 01:30:48;;;;;;;0.73;0.73;;;27.40;37.90;;;;;;5129170;27;45398;-73
2022/06/21 01:33:16;;;;;;;1.20;1.10;;;27.30;37.90;;;;;;5128680;27;46382;-73
2022/06/21 01:35:45;;;;;;;1.60;0.82;;;27.30;37.80;;;;;;5128691;27;45205;-74
2022/06/21 01:38:14;;;;;;;1.95;0.88;;;27.30;37.90;;;;;;5128935;27;45394;-74
2022/06/21 01:40:43;;;;;;;0.70;0.70;;;27.30;37.90;;;;;;5128330;27;45394;-73
2022/06/21 01:43:11;;;;;;;0.80;0.77;;;27.20;37.90;;;;;;5127968;27;45222;-73
2022/06/21 01:45:40;;;;;;;2.53;0.80;;;27.20;37.80;;;;;;5129344;27;45419;-73
2022/06/21 01:48:12;;;;;;;1.65;1.10;;;27.20;37.90;;;;;;5129286;27;45195;-74
2022/06/21 01:50:39;;;;;;;0.65;0.65;;;27.20;37.80;;;;;;5129109;27;45635;-74
2022/06/21 01:53:06;;;;;;;1.80;0.80;;;27.20;37.80;;;;;;5128418;27;46273;-74
2022/06/21 01:55:35;;;;;;;0.75;0.75;;;27.20;37.90;;;;;;5129278;27;45249;-74
2022/06/21 01:58:02;;;;;;;0.80;0.80;;;27.10;37.80;;;;;;5129181;27;45317;-74
2022/06/21 02:00:31;;;;;;;0.63;0.63;;;27.10;37.90;;;;;;5129400;27;45260;-74
2022/06/21 02:03:00;;;;;;;1.50;1.00;;;27.10;37.90;;;;;;5129139;27;46598;-74
2022/06/21 02:05:30;;;;;;;0.77;0.75;;;27.10;37.90;;;;;;5128670;27;45401;-73
2022/06/21 02:08:00;;;;;;;1.10;0.90;;;27.00;37.90;;;;;;5128531;27;45183;-73
2022/06/21 02:10:29;;;;;;;1.15;0.82;;;27.00;37.90;;;;;;5128649;27;45408;-73
2022/06/21 02:12:57;;;;;;;0.70;0.70;;;27.00;37.90;;;;;;5128246;27;46454;-73
2022/06/21 02:15:30;;;;;;;1.05;0.95;;;27.00;37.90;;;;;;5128027;27;45167;-74
2022/06/21 02:17:58;;;;;;;0.65;0.65;;;27.00;38.00;;;;;;5127765;27;45246;-74
2022/06/21 02:20:28;;;;;;;1.05;0.68;;;26.90;37.90;;;;;;5128164;27;45180;-74
2022/06/21 02:22:55;;;;;;;1.17;0.80;;;26.90;37.90;;;;;;5128164;27;45248;-74
2022/06/21 02:25:24;;;;;;;0.85;0.85;;;26.90;37.90;;;;;;5128290;27;45211;-74
2022/06/21 02:27:51;;;;;;;1.13;0.93;;;26.90;37.90;;;;;;5128318;27;45192;-73
2022/06/21 02:30:19;;;;;;;1.35;0.90;;;26.90;37.90;;;;;;5128351;27;45301;-74
2022/06/21 02:32:46;;;;;;;0.90;0.90;;;26.80;37.90;;;;;;5128000;27;46413;-74
2022/06/21 02:35:19;;;;;;;1.02;0.85;;;26.80;37.90;;;;;;5127930;27;45496;-73
2022/06/21 02:37:46;;;;;;;0.80;0.75;;;26.80;37.90;;;;;;5128341;27;45325;-73
2022/06/21 02:40:17;;;;;;;1.15;0.80;;;26.80;37.90;;;;;;5127604;27;45126;-74
2022/06/21 02:42:44;;;;;;;0.90;0.90;;;26.70;37.80;;;;;;5126935;27;45520;-74
2022/06/21 02:45:19;;;;;;;1.50;0.70;;;26.70;37.80;;;;;;5127890;27;45301;-74
2022/06/21 02:47:46;;;;;;;1.00;0.90;;;26.70;37.90;;;;;;5128041;27;45324;-74
2022/06/21 02:50:32;;;;;;;0.88;0.80;;;26.70;37.80;;;;;;5128190;27;45447;-73
2022/06/21 02:52:58;;;;;;;0.95;0.93;;;26.70;37.80;;;;;;5127632;27;47771;-74
2022/06/21 02:55:35;;;;;;;1.73;0.90;;;26.60;37.70;;;;;;5127599;27;45235;-73
2022/06/21 02:58:05;;;;;;;0.80;0.80;;;26.60;37.80;;;;;;5127898;27;45306;-73
2022/06/21 03:00:32;;;;;;;0.90;0.90;;;26.60;37.90;;;;;;5128138;27;45471;-73
2022/06/21 03:02:59;;;;;;;0.75;0.75;;;26.60;37.90;;;;;;5127541;27;46401;-73
2022/06/21 03:05:28;;;;;;;0.80;0.80;;;26.50;37.80;;;;;;5127568;27;45292;-73
2022/06/21 03:07:56;;;;;;;1.05;0.88;;;26.50;37.80;;;;;;5127631;27;45265;-73
2022/06/21 03:10:24;;;;;;;0.95;0.70;;;26.50;37.90;;;;;;5127767;27;45288;-73
2022/06/21 03:12:53;;;;;;;1.27;0.80;;;26.50;37.80;;;;;;5127421;27;46402;-73
2022/06/21 03:15:20;;;;;;;1.85;0.90;;;26.50;37.80;;;;;;5127424;27;45309;-73
2022/06/21 03:17:49;;;;;;;0.90;0.88;;;26.40;37.80;;;;;;5127594;27;45536;-72
2022/06/21 03:20:17;;;;;;;0.90;0.73;;;26.40;37.80;;;;;;5127867;27;45187;-73
2022/06/21 03:22:45;;;;;;;0.60;0.60;;;26.40;37.80;;;;;;5127397;27;46365;-73
2022/06/21 03:25:18;;;;;;;0.82;0.82;;;26.40;37.80;;;;;;5127515;27;45302;-73
2022/06/21 03:27:49;;;;;;;1.02;0.70;;;26.40;37.90;;;;;;5127863;27;45368;-73
2022/06/21 03:30:17;;;;;;;1.13;0.80;;;26.40;37.90;;;;;;5128098;27;45181;-73
2022/06/21 03:32:43;;;;;;;0.70;0.70;;;26.30;37.80;;;;;;5129157;27;45267;-73
2022/06/21 03:35:10;;;;;;;1.00;0.90;;;26.30;37.80;;;;;;5130619;27;45455;-73
2022/06/21 03:37:37;;;;;;;0.80;0.80;;;26.30;37.90;;;;;;5131301;27;45453;-73
2022/06/21 03:42:51;;;;;;;1.08;0.70;;;26.30;37.90;;;;;;5131275;27;45221;-73
2022/06/21 03:45:20;;;;;;;1.63;0.90;;;26.30;37.90;;;;;;5131199;27;45327;-73
2022/06/21 03:47:48;;;;;;;1.08;0.90;;;26.20;37.80;;;;;;5130817;27;45303;-74
2022/06/21 03:50:17;;;;;;;1.00;0.90;;;26.20;38.40;;;;;;5130757;27;45178;-73
2022/06/21 03:52:45;;;;;;;1.05;0.98;;;26.20;37.80;;;;;;5130368;27;47335;-73
2022/06/21 03:55:23;;;;;;;0.90;0.90;;;26.20;37.90;;;;;;5130878;27;45327;-73
2022/06/21 03:57:54;;;;;;;0.75;0.75;;;26.20;37.90;;;;;;5131028;27;45286;-73
2022/06/21 04:00:21;;;;;;;1.55;0.90;;;26.10;37.80;;;;;;5131448;27;45301;-73
2022/06/21 04:02:51;;;;;;;0.70;0.70;;;26.10;37.90;;;;;;5130796;27;45202;-73
2022/06/21 04:05:21;;;;;;;1.25;0.80;;;26.10;37.90;;;;;;5130828;27;45380;-73
2022/06/21 04:07:49;;;;;;;0.93;0.90;;;26.10;37.90;;;;;;5130995;27;45249;-73
2022/06/21 04:10:19;;;;;;;0.80;0.80;;;26.10;38.00;;;;;;5131565;27;45183;-73
2022/06/21 04:12:52;;;;;;;0.82;0.82;;;26.00;37.80;;;;;;5130650;27;46399;-73
2022/06/21 04:15:20;;;;;;;0.70;0.70;;;26.00;37.90;;;;;;5130741;27;45389;-73
2022/06/21 04:17:50;;;;;;;0.77;0.77;;;26.00;37.90;;;;;;5130453;27;45293;-73
2022/06/21 04:20:18;;;;;;;0.80;0.80;;;26.00;37.90;;;;;;5130960;27;45431;-73
2022/06/21 04:22:49;;;;;;;1.30;0.80;;;26.00;37.90;;;;;;5130292;27;45466;-73
2022/06/21 04:25:23;;;;;;;1.10;1.00;;;26.00;37.90;;;;;;5130613;27;45149;-73
2022/06/21 04:27:52;;;;;;;0.70;0.70;;;25.90;37.90;;;;;;5130813;27;45182;-73
2022/06/21 04:30:23;;;;;;;1.25;0.90;;;25.90;37.90;;;;;;5130639;27;45368;-72
2022/06/21 04:32:51;;;;;;;1.63;0.98;;;25.90;37.90;;;;;;5130197;27;45457;-73
2022/06/21 04:35:20;;;;;;;1.00;0.80;;;25.90;37.80;;;;;;5129819;27;45539;-73
2022/06/21 04:37:50;;;;;;;1.10;1.00;;;25.90;37.90;;;;;;5130559;27;45249;-73
2022/06/21 04:40:21;;;;;;;0.90;0.90;;;25.90;38.00;;;;;;5131069;27;45121;-73
2022/06/21 04:42:52;;;;;;;1.05;0.90;;;25.90;37.90;;;;;;5130061;27;46448;-73
2022/06/21 04:45:21;;;;;;;0.75;0.75;;;25.90;37.90;;;;;;5129465;27;45322;-72
2022/06/21 04:47:49;;;;;;;1.38;0.80;;;25.90;37.90;;;;;;5130312;27;45240;-73
2022/06/21 04:50:23;;;;;;;0.80;0.80;;;25.90;37.90;;;;;;5130340;27;45473;-73
2022/06/21 04:52:53;;;;;;;0.70;0.70;;;25.90;37.90;;;;;;5129452;27;46534;-72
2022/06/21 04:55:23;;;;;;;1.50;0.90;;;25.80;37.90;;;;;;5129573;27;45487;-73
2022/06/21 04:57:50;;;;;;;0.80;0.80;;;25.90;37.90;;;;;;5129754;27;45231;-73
2022/06/21 05:00:17;;;;;;;1.08;0.95;;;25.80;37.80;;;;;;5129789;27;45126;-73
2022/06/21 05:02:46;;;;;;;2.97;1.00;;;25.80;37.90;;;;;;5129381;27;46943;-73
2022/06/21 05:05:16;;;;;;;0.85;0.70;;;25.80;37.80;;;;;;5129264;27;45542;-73
2022/06/21 05:07:45;;;;;;;0.77;0.70;;;25.80;37.80;;;;;;5129665;27;45196;-73
2022/06/21 05:10:14;;;;;;;1.17;1.00;;;25.80;37.90;;;;;;5129879;27;45271;-73
2022/06/21 05:12:43;;;;;;;1.08;0.95;;;25.80;37.90;;;;;;5129056;27;45232;-73
2022/06/21 05:15:14;;;;;;;1.40;1.00;;;25.80;37.90;;;;;;5126491;27;45316;-73
2022/06/21 05:17:42;;;;;;;1.05;0.90;;;25.80;37.90;;;;;;5128838;27;45206;-73
2022/06/21 05:20:13;;;;;;;1.13;0.90;;;25.80;38.00;;;;;;5129485;27;45216;-72
2022/06/21 05:22:41;;;;;;;1.92;1.25;;;25.80;38.00;;;;;;5129915;27;46725;-72
2022/06/21 05:25:16;;;;;;;0.90;0.90;;;25.80;38.10;;;;;;5129729;27;45212;-73
2022/06/21 05:27:45;;;;;;;1.17;1.13;;;25.80;38.10;;;;;;5129654;27;45189;-72
2022/06/21 05:30:15;;;;;;;1.40;1.30;;;25.80;38.10;;;;;;5130092;27;45248;-72
2022/06/21 05:32:45;;;;;;;1.40;1.30;;;25.80;38.10;;;;;;5129763;27;46714;-73
2022/06/21 05:35:13;;;;;;;2.13;1.30;;;25.80;38.10;;;;;;5129783;27;45287;-72
2022/06/21 05:37:50;;;;;;;3.88;1.30;;;25.70;38.00;;;;;;5129363;27;45146;-73
2022/06/21 05:40:20;;;;;;;1.52;1.42;;;25.70;38.20;;;;;;5130562;27;45198;-72
2022/06/21 05:42:48;;;;;;;1.60;1.48;;;25.70;38.10;;;;;;5128802;27;45480;-73
2022/06/21 05:45:16;;;;;;;1.45;1.27;;;25.80;38.20;;;;;;5128886;27;45212;-73
2022/06/21 05:47:44;;;;;;;1.70;1.60;;;25.70;38.10;;;;;;5129310;27;45212;-72
2022/06/21 05:50:14;;;;;;;1.77;1.67;;;25.80;38.20;;;;;;5127007;27;45291;-72
2022/06/21 05:52:42;;;;;;;2.80;1.67;;;25.80;38.20;;;;;;5129306;27;46393;-72
2022/06/21 05:55:13;;;;;;;3.63;2.00;;;25.70;38.20;;;;;;5128479;27;45299;-72
2022/06/21 05:57:41;;;;;;;2.30;1.60;;;25.80;38.20;;;;;;5128750;27;45145;-72
2022/06/21 06:00:18;;;;;;;2.45;1.80;;;25.80;38.30;;;;;;5129907;27;45126;-72
2022/06/21 06:02:47;;;;;;;3.33;1.40;;;25.70;38.20;;;;;;5129301;27;45448;-72
2022/06/21 06:05:15;;;;;;;1.98;1.55;;;25.70;38.20;;;;;;5129391;27;45345;-72
2022/06/21 06:07:43;;;;;;;3.42;2.08;;;25.70;38.30;;;;;;5129315;27;45190;-72
2022/06/21 06:10:10;;;;;;;3.85;1.80;;;25.70;38.30;;;;;;5129338;27;45309;-72
2022/06/21 06:12:38;;;;;;;2.17;1.85;;;25.70;38.30;;;;;;5128595;27;46418;-72
2022/06/21 06:15:06;;;;;;;2.60;2.10;;;25.70;38.40;;;;;;5129320;27;45208;-72
2022/06/21 06:17:39;;;;;;;3.28;2.20;;;25.70;38.30;;;;;;5128517;27;45295;-72
2022/06/21 06:20:07;;;;;;;4.88;2.28;;;25.70;38.30;;;;;;5130030;27;45295;-72
2022/06/21 06:22:37;;;;;;;4.45;2.33;;;25.70;38.40;;;;;;5128484;27;46478;-72
2022/06/21 06:25:07;;;;;;;4.95;2.40;;;25.70;38.40;;;;;;5128369;27;45324;-72
2022/06/21 06:27:38;;;;;;;3.55;2.20;;;25.80;38.40;;;;;;5128367;27;45241;-72
2022/06/21 06:30:06;;;;;;;4.35;2.20;;;25.80;38.50;;;;;;5128523;27;45195;-72
2022/06/21 06:32:37;;;;;;;3.20;2.33;;;25.80;38.50;;;;;;5128547;27;46391;-72
2022/06/21 06:35:04;;;;;;;4.53;2.78;;;25.80;38.50;;;;;;5127935;27;45351;-73
2022/06/21 06:37:33;;;;;;;6.20;2.20;;;25.80;38.50;;;;;;5128112;27;45229;-72
2022/06/21 06:40:00;;;;;;;3.50;2.20;;;25.80;38.50;;;;;;5121206;27;45359;-72
2022/06/21 06:42:29;;;;;;;5.43;2.30;;;25.80;38.60;;;;;;5124649;27;46394;-72
2022/06/21 06:44:58;;;;;;;6.93;2.47;;;25.80;38.60;;;;;;5123031;27;45412;-72
2022/06/21 06:47:28;;;;;;;2.95;2.22;;;25.80;38.60;;;;;;5123917;27;45385;-72
2022/06/21 06:49:57;;;;;;;4.00;2.30;;;25.80;38.60;;;;;;5123958;27;45304;-72
2022/06/21 06:52:25;;;;;;;2.80;2.00;;;25.80;38.60;;;;;;5123854;27;47332;-72
2022/06/21 06:54:55;;;;;;;4.95;2.40;;;25.80;38.60;;;;;;5121583;27;45444;-72
2022/06/21 06:57:25;;;;;;;4.70;2.10;;;25.80;38.60;;;;;;5121755;27;45413;-73
2022/06/21 06:59:52;;;;;;;5.90;2.65;;;25.80;38.70;;;;;;5125722;27;45453;-72
2022/06/21 07:02:23;;;;;;;2.65;2.00;;;25.80;38.70;;;;;;5123399;27;45484;-72
2022/06/21 07:04:55;;;;;;;3.58;2.22;;;25.80;38.70;;;;;;5128046;27;45191;-73
2022/06/21 07:07:26;;;;;;;4.50;2.40;;;25.80;38.60;;;;;;5129972;27;45207;-72
2022/06/21 07:09:54;;;;;;;6.22;1.80;;;25.90;38.70;;;;;;5131629;27;45346;-71
2022/06/21 07:12:23;;;;;;;5.32;1.90;;;25.80;39.80;;;;;;5129526;27;46721;-74
2022/06/21 07:14:50;;;;;;;8.95;1.90;;;25.60;40.20;;;;;;5130744;27;45304;-74
2022/06/21 07:17:20;;;;;;;3.58;2.05;;;25.50;40.50;;;;;;5131524;27;45321;-74
2022/06/21 07:19:46;;;;;;;5.18;2.30;;;25.40;40.90;;;;;;5131968;27;45179;-74
2022/06/21 07:22:16;;;;;;;3.20;1.83;;;25.30;41.10;;;;;;5131328;27;46368;-74
2022/06/21 07:24:45;;;;;;;11.35;2.20;;;25.20;41.20;;;;;;5131572;27;45300;-74
2022/06/21 07:27:13;;;;;;;3.65;2.00;;;25.20;41.40;;;;;;5131617;27;45179;-74
2022/06/21 07:29:44;;;;;;;4.60;1.80;;;25.20;41.70;;;;;;5131913;27;45422;-74
2022/06/21 07:32:11;;;;;;;4.72;1.98;;;25.10;42.00;;;;;;5131325;27;46518;-74
2022/06/21 07:34:42;;;;;;;4.65;2.03;;;25.00;42.20;;;;;;5131109;27;45227;-74
2022/06/21 07:37:11;;;;;;;3.45;2.10;;;25.00;42.40;;;;;;5131303;27;45215;-73
2022/06/21 07:39:40;;;;;;;5.40;1.90;;;25.00;42.60;;;;;;5131722;27;45398;-73
2022/06/21 07:42:10;;;;;;;4.25;2.05;;;24.90;42.60;;;;;;5130947;27;45504;-73
2022/06/21 07:44:41;;;;;;;4.50;1.83;;;24.90;42.90;;;;;;5130978;27;45171;-74
2022/06/21 07:47:10;;;;;;;5.47;1.95;;;24.90;42.80;;;;;;5131211;27;45363;-73
2022/06/21 07:49:38;;;;;;;3.25;1.73;;;24.90;43.10;;;;;;5131620;27;45157;-73
2022/06/21 07:52:07;;;;;;;4.60;2.00;;;25.00;43.10;;;;;;5130924;27;45185;-73
2022/06/21 07:54:36;;;;;;;4.53;2.40;;;25.00;43.20;;;;;;5130069;27;45309;-73
2022/06/21 07:57:06;;;;;;;19.98;3.20;;;25.00;43.30;;;;;;5130954;27;45187;-73
2022/06/21 07:59:36;;;;;;;6.50;2.30;;;25.00;43.60;;;;;;5131252;27;45338;-73
2022/06/21 08:07:36;;;;;;;3.50;1.83;;;25.20;43.50;;;;;;5131366;27;45361;-73
2022/06/21 08:10:05;;;;;;;4.95;2.00;;;25.20;43.60;;;;;;5131142;27;45260;-74
2022/06/21 08:12:32;;;;;;;3.35;1.80;;;25.20;43.80;;;;;;5130387;27;45247;-74
2022/06/21 08:15:00;;;;;;;2.85;2.00;;;25.10;44.20;;;;;;5130376;27;45238;-74
2022/06/21 08:17:31;;;;;;;5.07;1.83;;;25.10;44.20;;;;;;5129965;27;45770;-74
2022/06/21 08:20:02;;;;;;;2.72;2.00;;;25.10;44.40;;;;;;5129813;27;45211;-74
2022/06/21 08:22:32;;;;;;;3.10;1.80;;;25.10;44.20;;;;;;5130091;27;47568;-73
2022/06/21 08:25:01;;;;;;;3.17;2.33;;;25.10;44.80;;;;;;5130277;27;45213;-73
2022/06/21 08:27:35;;;;;;;5.40;2.38;;;25.10;45.20;;;;;;5129765;27;45331;-72
2022/06/21 08:30:09;;;;;;;3.85;1.98;;;25.00;45.50;;;;;;5129698;27;45375;-75
2022/06/21 08:32:38;;;;;;;3.55;2.58;;;24.90;45.90;;;;;;5129283;27;46649;-74
2022/06/21 08:35:09;;;;;;;2.97;2.03;;;24.90;45.90;;;;;;5129530;27;45374;-74
2022/06/21 08:37:38;;;;;;;2.28;1.92;;;24.90;46.00;;;;;;5129987;27;45322;-74
2022/06/21 08:40:21;;;;;;;3.17;2.30;;;25.00;46.10;;;;;;5130451;27;45286;-74
2022/06/21 08:43:13;;;;;;;3.60;2.30;;;25.00;46.40;;;;;;5129861;27;46700;-74
2022/06/21 08:46:11;;;;;;;3.90;2.50;;;25.00;46.80;;;;;;5129907;27;45170;-73
2022/06/21 08:49:06;;;;;;;3.85;2.30;;;25.00;47.00;;;;;;5091952;27;45614;-74
2022/06/21 08:51:51;;;;;;;3.08;2.42;;;25.00;47.00;;;;;;5129975;27;45341;-73
2022/06/21 08:54:25;;;;;;;3.72;2.45;;;25.10;46.80;;;;;;5129487;27;46346;-73
2022/06/21 08:56:57;;;;;;;4.57;2.35;;;25.10;46.70;;;;;;5129814;27;45239;-74
2022/06/21 08:59:28;;;;;;;2.22;2.00;;;25.10;47.10;;;;;;5129872;27;45202;-74
2022/06/21 09:02:01;;;;;;;2.10;1.90;;;25.20;47.30;;;;;;5129861;27;45328;-74
2022/06/21 09:04:35;;;;;;;2.42;2.22;;;25.20;47.00;;;;;;5129560;27;45283;-74
2022/06/21 09:07:18;;;;;;;5.35;2.30;;;25.30;46.90;;;;;;5128989;27;45432;-74
2022/06/21 09:09:51;;;;;;;2.75;2.17;;;25.30;46.80;;;;;;5129530;27;45214;-74
2022/06/21 09:12:22;;;;;;;3.80;2.80;;;25.30;47.10;;;;;;5129519;27;45553;-74
2022/06/21 09:14:59;;;;;;;3.53;2.20;;;25.30;47.30;;;;;;5129289;27;46674;-74
2022/06/21 09:17:29;;;;;;;3.03;2.35;;;25.30;47.40;;;;;;5128744;27;45406;-74
2022/06/21 09:20:07;;;;;;;2.40;2.22;;;25.30;47.80;;;;;;5129401;27;45337;-74
2022/06/21 09:22:40;;;;;;;5.05;2.33;;;25.50;47.00;;;;;;5129531;27;45328;-74
2022/06/21 09:25:11;;;;;;;3.03;2.30;;;25.50;46.60;;;;;;5129072;27;45281;-74
2022/06/21 09:27:41;;;;;;;2.58;2.38;;;25.60;47.00;;;;;;5128955;27;45250;-74
2022/06/21 09:30:09;;;;;;;2.60;2.20;;;25.60;47.50;;;;;;5126547;27;45312;-74
2022/06/21 09:32:45;;;;;;;2.80;2.50;;;25.70;47.10;;;;;;5129474;27;45404;-73
2022/06/21 09:35:18;;;;;;;3.63;2.40;;;25.70;47.40;;;;;;5128897;27;46390;-74
2022/06/21 09:38:07;;;;;;;3.20;2.50;;;25.60;47.40;;;;;;5128746;27;45400;-74
2022/06/21 09:40:34;;;;;;;2.92;2.70;;;25.60;47.60;;;;;;5128892;27;45223;-74
2022/06/21 09:43:08;;;;;;;2.40;2.25;;;25.70;47.40;;;;;;5128977;27;45452;-74
2022/06/21 09:45:37;;;;;;;3.75;2.58;;;25.80;47.00;;;;;;5129046;27;45189;-74
2022/06/21 09:48:10;;;;;;;3.78;2.65;;;25.90;47.20;;;;;;5129163;27;45340;-73
2022/06/21 09:50:42;;;;;;;3.35;2.80;;;25.90;47.40;;;;;;5129168;27;45336;-74
2022/06/21 09:53:12;;;;;;;4.30;2.67;;;25.90;46.90;;;;;;5129252;27;45157;-74
2022/06/21 09:55:42;;;;;;;3.17;2.88;;;26.00;47.30;;;;;;5128677;27;45252;-73
2022/06/21 09:58:14;;;;;;;3.72;2.83;;;25.90;47.50;;;;;;5127910;27;45260;-74
2022/06/21 10:00:42;;;;;;;2.65;2.45;;;26.00;47.70;;;;;;5128198;27;45312;-74
2022/06/21 10:03:18;;;;;;;4.50;2.60;;;26.00;47.80;;;;;;5129142;27;44725;-74
2022/06/21 10:05:48;;;;;;;3.20;2.90;;;26.00;47.30;;;;;;5128526;27;45637;-74
2022/06/21 10:08:21;;;;;;;3.83;2.72;;;26.00;47.40;;;;;;5128475;27;45355;-73
2022/06/21 10:10:56;;;;;;;4.68;2.90;;;26.10;47.00;;;;;;5128645;27;45300;-74
2022/06/21 10:13:37;;;;;;;3.58;2.63;;;26.10;47.30;;;;;;5128690;27;45354;-74
2022/06/21 10:16:16;;;;;;;4.60;3.45;;;26.00;47.10;;;;;;5128019;27;45326;-74
2022/06/21 10:19:02;;;;;;;4.57;3.15;;;26.10;47.50;;;;;;5128019;27;45282;-73
2022/06/21 10:21:37;;;;;;;7.50;3.13;;;26.10;47.80;;;;;;5128032;27;45403;-74
2022/06/21 10:24:25;;;;;;;5.15;3.00;;;26.20;48.10;;;;;;5128037;27;45374;-77
2022/06/21 10:27:20;;;;;;;5.53;3.05;;;26.10;48.30;;;;;;5128001;27;46409;-75
2022/06/21 10:30:18;;;;;;;2.88;2.47;;;26.20;47.90;;;;;;5128476;27;45306;-74
2022/06/21 10:32:52;;;;;;;5.25;3.08;;;26.30;47.70;;;;;;5128281;27;45153;-73
2022/06/21 10:35:36;;;;;;;4.03;3.13;;;26.40;47.80;;;;;;5128215;27;45426;-74
2022/06/21 10:38:12;;;;;;;7.07;3.05;;;26.40;47.70;;;;;;5127788;27;46660;-74
2022/06/21 10:40:43;;;;;;;5.78;3.10;;;26.40;47.60;;;;;;5128149;27;45220;-73
2022/06/21 10:43:47;;;;;;;5.85;3.30;;;26.50;47.90;;;;;;5127490;27;45314;-73
2022/06/21 10:46:16;;;;;;;8.07;3.33;;;26.50;47.90;;;;;;5128442;27;45364;-73
2022/06/21 10:49:04;;;;;;;5.45;3.03;;;26.60;47.80;;;;;;5127640;27;45440;-74
2022/06/21 10:51:43;;;;;;;8.88;3.65;;;26.60;47.70;;;;;;5128088;27;45246;-74
2022/06/21 10:54:19;;;;;;;3.53;3.00;;;26.60;47.90;;;;;;5128285;27;45376;-74
2022/06/21 10:57:13;;;;;;;6.28;3.15;;;26.70;47.90;;;;;;5127964;27;45407;-74
2022/06/21 11:02:48;;;;;;;5.32;3.00;;;26.80;48.30;;;;;;5128234;27;45203;-74
2022/06/21 11:05:17;;;;;;;3.30;2.97;;;26.70;48.60;;;;;;5127676;27;45244;-73
2022/06/21 11:07:48;;;;;;;3.72;3.00;;;26.80;48.40;;;;;;5127802;27;45429;-74
2022/06/21 11:10:17;;;;;;;7.13;3.10;;;26.80;48.80;;;;;;5127599;27;45269;-74
2022/06/21 11:12:56;;;;;;;3.15;2.80;;;26.80;48.40;;;;;;5127738;27;45234;-74
2022/06/21 11:15:34;;;;;;;4.70;2.85;;;26.80;48.60;;;;;;5127795;27;45258;-74
2022/06/21 11:18:06;;;;;;;3.50;3.20;;;26.80;48.70;;;;;;5127721;27;45327;-74
2022/06/21 11:20:34;;;;;;;3.95;2.72;;;26.90;48.60;;;;;;5127448;27;45214;-74
2022/06/21 11:23:10;;;;;;;3.83;3.13;;;27.00;48.70;;;;;;5127623;27;45330;-74
2022/06/21 11:25:41;;;;;;;5.75;2.85;;;27.00;49.00;;;;;;5125020;27;45368;-75
2022/06/21 11:28:15;;;;;;;5.53;3.45;;;27.10;48.60;;;;;;5127804;27;45399;-74
2022/06/21 11:30:47;;;;;;;5.53;3.08;;;27.10;48.30;;;;;;5127484;27;45322;-74
2022/06/21 11:33:17;;;;;;;4.60;3.05;;;27.20;48.70;;;;;;5127391;27;45332;-73
2022/06/21 11:35:49;;;;;;;5.47;3.13;;;27.30;48.30;;;;;;5127023;27;45337;-74
2022/06/21 11:38:24;;;;;;;3.20;2.90;;;27.40;48.30;;;;;;5127543;27;45485;-74
2022/06/21 11:40:54;;;;;;;4.47;2.83;;;27.40;48.60;;;;;;5127297;27;46373;-74
2022/06/21 11:43:37;;;;;;;3.58;3.25;;;27.50;47.70;;;;;;5127323;27;45200;-74
2022/06/21 11:46:09;;;;;;;4.78;3.10;;;27.60;47.40;;;;;;5127472;27;45197;-74
2022/06/21 11:48:58;;;;;;;3.40;2.97;;;27.70;47.10;;;;;;5127686;27;45306;-76
2022/06/21 11:51:41;;;;;;;5.65;3.03;;;27.80;47.00;;;;;;5118282;27;46745;-74
2022/06/21 11:54:10;;;;;;;6.38;3.42;;;28.00;46.70;;;;;;5128207;27;45218;-74
2022/06/21 11:56:43;;;;;;;3.60;3.10;;;28.00;46.30;;;;;;5130569;27;45172;-75
2022/06/21 11:59:14;;;;;;;7.22;3.25;;;28.10;46.10;;;;;;5130866;27;45455;-74
2022/06/21 12:01:44;;;;;;;6.35;3.33;;;28.10;45.60;;;;;;5130450;27;45375;-74
2022/06/21 12:04:17;;;;;;;3.28;2.97;;;28.20;45.10;;;;;;5130384;27;45307;-75
2022/06/21 12:06:47;;;;;;;4.22;3.05;;;28.40;45.00;;;;;;5130800;27;45251;-75
2022/06/21 12:09:20;;;;;;;4.78;2.70;;;28.50;44.40;;;;;;5131207;27;45303;-75
2022/06/21 12:12:00;;;;;;;5.68;3.15;;;28.50;44.00;;;;;;5130687;27;46667;-75
2022/06/21 12:14:34;;;;;;;6.00;3.00;;;28.60;44.00;;;;;;5130882;27;45240;-75
2022/06/21 12:17:05;;;;;;;3.70;3.00;;;28.80;43.60;;;;;;5130267;27;45290;-75
2022/06/21 12:19:34;;;;;;;5.32;3.03;;;28.90;43.60;;;;;;5130853;27;45545;-76
2022/06/21 12:22:05;;;;;;;6.10;2.80;;;29.00;43.20;;;;;;5130542;27;45351;-76
2022/06/21 12:24:34;;;;;;;5.00;3.15;;;29.10;43.20;;;;;;5130610;27;45211;-75
2022/06/21 12:27:00;;;;;;;5.95;2.83;;;29.10;43.10;;;;;;5130452;27;45270;-76
2022/06/21 12:29:28;;;;;;;3.83;2.83;;;29.20;43.00;;;;;;5130599;27;45294;-76
2022/06/21 12:31:57;;;;;;;12.93;3.13;;;29.20;42.70;;;;;;5129851;27;46469;-75
2022/06/21 12:34:29;;;;;;;3.78;2.60;;;29.30;43.30;;;;;;5129863;27;45253;-75
2022/06/21 12:36:58;;;;;;;7.10;3.17;;;29.30;42.70;;;;;;5130729;27;45137;-74
2022/06/21 12:39:27;;;;;;;4.57;3.05;;;29.40;42.90;;;;;;5130804;27;45282;-75
2022/06/21 12:42:21;;;;;;;6.97;3.00;;;29.50;42.40;;;;;;5129572;27;45212;-75
2022/06/21 12:44:55;;;;;;;5.55;2.90;;;29.70;42.20;;;;;;5129980;27;45189;-75
2022/06/21 12:47:32;;;;;;;3.70;2.95;;;29.70;42.00;;;;;;5130065;27;45344;-75
2022/06/21 12:50:25;;;;;;;5.65;2.80;;;29.80;42.90;;;;;;5130453;27;45187;-75
2022/06/21 12:52:55;;;;;;;6.45;3.40;;;29.90;42.40;;;;;;5130223;27;46396;-74
2022/06/21 12:55:25;;;;;;;6.10;2.85;;;29.90;41.80;;;;;;5130030;27;45307;-74
2022/06/21 12:58:02;;;;;;;5.13;3.28;;;30.00;41.60;;;;;;5130223;27;45498;-75
2022/06/21 13:00:36;;;;;;;5.80;2.95;;;30.00;41.10;;;;;;5130448;27;45364;-75
2022/06/21 13:03:21;;;;;;;4.72;3.25;;;30.10;40.90;;;;;;5129646;27;45240;-75
2022/06/21 13:05:55;;;;;;;7.95;3.38;;;30.10;40.50;;;;;;5129131;27;45227;-74
2022/06/21 13:08:54;;;;;;;4.13;3.30;;;30.20;40.60;;;;;;5129648;27;45352;-75
2022/06/21 13:11:30;;;;;;;3.40;3.10;;;30.30;40.60;;;;;;5129844;27;45466;-75
2022/06/21 13:14:11;;;;;;;4.15;3.17;;;30.30;41.10;;;;;;5129255;27;46578;-73
2022/06/21 13:16:42;;;;;;;11.73;3.50;;;30.40;41.70;;;;;;5129050;27;45215;-74
2022/06/21 13:19:29;;;;;;;9.27;3.55;;;30.40;41.70;;;;;;5129177;27;45500;-75